sensor_id;sensor_type;location;lat;lon;timestamp;P1;durP1;ratioP1;P2;durP2;ratioP2
80567;SDS011;69922;45.656;25.586;2023-08-06T00:00:43;8.40;;;6.60;;
80567;SDS011;69922;45.656;25.586;2023-08-06T00:02:10;9.40;;;7.00;;
80567;SDS011;69922;45.656;25.586;2023-08-06T00:03:16;7.60;;;6.80;;
80567;SDS011;69922;45.656;25.586;2023-08-06T00:04:22;8.80;;;6.80;;
80567;SDS011;69922;45.656;25.586;2023-08-06T00:05:28;9.00;;;7.20;;
80567;SDS011;69922;45.656;25.586;2023-08-06T00:06:35;10.10;;;6.70;;
80567;SDS011;69922;45.656;25.586;2023-08-06T00:07:42;9.40;;;7.20;;
80567;SDS011;69922;45.656;25.586;2023-08-06T00:08:48;8.20;;;7.30;;
80567;SDS011;69922;45.656;25.586;2023-08-06T00:09:54;9.70;;;7.20;;
80567;SDS011;69922;45.656;25.586;2023-08-06T00:11:00;12.70;;;8.20;;
80567;SDS011;69922;45.656;25.586;2023-08-06T00:12:07;7.60;;;6.70;;
80567;SDS011;69922;45.656;25.586;2023-08-06T00:13:13;8.90;;;6.60;;
80567;SDS011;69922;45.656;25.586;2023-08-06T00:14:19;6.90;;;6.30;;
80567;SDS011;69922;45.656;25.586;2023-08-06T00:15:25;7.50;;;6.80;;
80567;SDS011;69922;45.656;25.586;2023-08-06T00:16:31;8.30;;;6.50;;
80567;SDS011;69922;45.656;25.586;2023-08-06T00:17:38;9.10;;;7.40;;
80567;SDS011;69922;45.656;25.586;2023-08-06T00:18:51;8.90;;;5.80;;
80567;SDS011;69922;45.656;25.586;2023-08-06T00:19:57;11.30;;;7.30;;
80567;SDS011;69922;45.656;25.586;2023-08-06T00:21:09;10.30;;;7.10;;
80567;SDS011;69922;45.656;25.586;2023-08-06T00:22:18;7.60;;;6.70;;
80567;SDS011;69922;45.656;25.586;2023-08-06T00:23:24;9.70;;;7.30;;
80567;SDS011;69922;45.656;25.586;2023-08-06T00:24:30;10.90;;;6.70;;
80567;SDS011;69922;45.656;25.586;2023-08-06T00:25:37;9.40;;;8.20;;
80567;SDS011;69922;45.656;25.586;2023-08-06T00:26:43;9.40;;;6.60;;
80567;SDS011;69922;45.656;25.586;2023-08-06T00:27:49;8.60;;;6.80;;
80567;SDS011;69922;45.656;25.586;2023-08-06T00:28:55;11.50;;;7.80;;
80567;SDS011;69922;45.656;25.586;2023-08-06T00:30:02;9.10;;;7.30;;
80567;SDS011;69922;45.656;25.586;2023-08-06T00:31:10;8.10;;;7.20;;
80567;SDS011;69922;45.656;25.586;2023-08-06T00:32:17;7.70;;;7.00;;
80567;SDS011;69922;45.656;25.586;2023-08-06T00:33:23;9.20;;;7.20;;
80567;SDS011;69922;45.656;25.586;2023-08-06T00:34:30;12.50;;;8.10;;
80567;SDS011;69922;45.656;25.586;2023-08-06T00:35:37;10.70;;;7.90;;
80567;SDS011;69922;45.656;25.586;2023-08-06T00:36:43;8.70;;;7.10;;
80567;SDS011;69922;45.656;25.586;2023-08-06T00:37:48;7.60;;;6.80;;
80567;SDS011;69922;45.656;25.586;2023-08-06T00:38:55;9.60;;;7.00;;
80567;SDS011;69922;45.656;25.586;2023-08-06T00:40:02;9.70;;;7.50;;
80567;SDS011;69922;45.656;25.586;2023-08-06T00:41:10;9.10;;;7.60;;
80567;SDS011;69922;45.656;25.586;2023-08-06T00:42:16;11.60;;;8.10;;
80567;SDS011;69922;45.656;25.586;2023-08-06T00:43:25;9.70;;;8.20;;
80567;SDS011;69922;45.656;25.586;2023-08-06T00:44:31;9.10;;;7.60;;
80567;SDS011;69922;45.656;25.586;2023-08-06T00:45:37;9.40;;;7.70;;
80567;SDS011;69922;45.656;25.586;2023-08-06T00:46:43;9.40;;;8.40;;
80567;SDS011;69922;45.656;25.586;2023-08-06T00:47:56;12.00;;;7.50;;
80567;SDS011;69922;45.656;25.586;2023-08-06T00:49:03;8.40;;;7.20;;
80567;SDS011;69922;45.656;25.586;2023-08-06T00:50:10;9.00;;;7.70;;
80567;SDS011;69922;45.656;25.586;2023-08-06T00:51:16;9.10;;;6.80;;
80567;SDS011;69922;45.656;25.586;2023-08-06T00:52:23;8.80;;;7.80;;
80567;SDS011;69922;45.656;25.586;2023-08-06T00:53:31;10.80;;;7.50;;
80567;SDS011;69922;45.656;25.586;2023-08-06T00:54:37;8.80;;;7.90;;
80567;SDS011;69922;45.656;25.586;2023-08-06T00:55:44;11.80;;;7.80;;
80567;SDS011;69922;45.656;25.586;2023-08-06T00:56:52;8.70;;;7.70;;
80567;SDS011;69922;45.656;25.586;2023-08-06T00:57:59;10.90;;;8.10;;
80567;SDS011;69922;45.656;25.586;2023-08-06T00:59:07;9.30;;;7.90;;
80567;SDS011;69922;45.656;25.586;2023-08-06T01:00:14;9.60;;;7.60;;
80567;SDS011;69922;45.656;25.586;2023-08-06T01:01:21;9.60;;;6.80;;
80567;SDS011;69922;45.656;25.586;2023-08-06T01:02:28;8.60;;;7.60;;
80567;SDS011;69922;45.656;25.586;2023-08-06T01:03:35;9.70;;;7.60;;
80567;SDS011;69922;45.656;25.586;2023-08-06T01:04:41;8.00;;;6.90;;
80567;SDS011;69922;45.656;25.586;2023-08-06T01:05:47;10.90;;;7.20;;
80567;SDS011;69922;45.656;25.586;2023-08-06T01:06:56;8.30;;;7.20;;
80567;SDS011;69922;45.656;25.586;2023-08-06T01:08:19;10.40;;;6.60;;
80567;SDS011;69922;45.656;25.586;2023-08-06T01:09:34;9.20;;;7.50;;
80567;SDS011;69922;45.656;25.586;2023-08-06T01:10:51;10.30;;;6.90;;
80567;SDS011;69922;45.656;25.586;2023-08-06T01:12:06;12.00;;;7.50;;
80567;SDS011;69922;45.656;25.586;2023-08-06T01:13:23;9.40;;;6.50;;
80567;SDS011;69922;45.656;25.586;2023-08-06T01:14:37;7.80;;;6.90;;
80567;SDS011;69922;45.656;25.586;2023-08-06T01:15:49;9.30;;;7.50;;
80567;SDS011;69922;45.656;25.586;2023-08-06T01:16:59;10.60;;;8.00;;
80567;SDS011;69922;45.656;25.586;2023-08-06T01:19:17;9.20;;;7.60;;
80567;SDS011;69922;45.656;25.586;2023-08-06T01:20:28;11.30;;;7.40;;
80567;SDS011;69922;45.656;25.586;2023-08-06T01:21:34;8.40;;;7.20;;
80567;SDS011;69922;45.656;25.586;2023-08-06T01:22:41;9.60;;;8.00;;
80567;SDS011;69922;45.656;25.586;2023-08-06T01:23:47;9.90;;;7.30;;
80567;SDS011;69922;45.656;25.586;2023-08-06T01:24:54;8.40;;;6.80;;
80567;SDS011;69922;45.656;25.586;2023-08-06T01:26:02;10.40;;;6.60;;
80567;SDS011;69922;45.656;25.586;2023-08-06T01:27:17;7.40;;;6.70;;
80567;SDS011;69922;45.656;25.586;2023-08-06T01:28:32;9.30;;;7.90;;
80567;SDS011;69922;45.656;25.586;2023-08-06T01:30:51;11.10;;;7.60;;
80567;SDS011;69922;45.656;25.586;2023-08-06T01:32:03;8.40;;;7.60;;
80567;SDS011;69922;45.656;25.586;2023-08-06T01:33:14;12.40;;;7.80;;
80567;SDS011;69922;45.656;25.586;2023-08-06T01:34:25;10.80;;;7.40;;
80567;SDS011;69922;45.656;25.586;2023-08-06T01:35:34;9.30;;;8.40;;
80567;SDS011;69922;45.656;25.586;2023-08-06T01:36:42;9.30;;;7.40;;
80567;SDS011;69922;45.656;25.586;2023-08-06T01:37:49;10.20;;;8.10;;
80567;SDS011;69922;45.656;25.586;2023-08-06T01:38:55;9.80;;;8.80;;
80567;SDS011;69922;45.656;25.586;2023-08-06T01:40:02;9.70;;;8.50;;
80567;SDS011;69922;45.656;25.586;2023-08-06T01:41:14;7.80;;;7.10;;
80567;SDS011;69922;45.656;25.586;2023-08-06T01:42:20;8.90;;;7.10;;
80567;SDS011;69922;45.656;25.586;2023-08-06T01:43:26;9.00;;;6.70;;
80567;SDS011;69922;45.656;25.586;2023-08-06T01:45:38;9.10;;;7.70;;
80567;SDS011;69922;45.656;25.586;2023-08-06T01:46:44;9.50;;;7.80;;
80567;SDS011;69922;45.656;25.586;2023-08-06T01:47:50;8.70;;;7.70;;
80567;SDS011;69922;45.656;25.586;2023-08-06T01:48:56;10.30;;;7.30;;
80567;SDS011;69922;45.656;25.586;2023-08-06T01:50:03;10.90;;;7.60;;
80567;SDS011;69922;45.656;25.586;2023-08-06T01:51:12;10.30;;;7.90;;
80567;SDS011;69922;45.656;25.586;2023-08-06T01:52:19;11.70;;;8.60;;
80567;SDS011;69922;45.656;25.586;2023-08-06T01:53:25;11.10;;;8.60;;
80567;SDS011;69922;45.656;25.586;2023-08-06T01:54:31;11.60;;;7.60;;
80567;SDS011;69922;45.656;25.586;2023-08-06T01:55:38;9.20;;;7.50;;
80567;SDS011;69922;45.656;25.586;2023-08-06T01:56:44;11.50;;;8.60;;
80567;SDS011;69922;45.656;25.586;2023-08-06T01:57:50;8.40;;;7.30;;
80567;SDS011;69922;45.656;25.586;2023-08-06T01:58:56;6.90;;;6.30;;
80567;SDS011;69922;45.656;25.586;2023-08-06T02:00:06;8.40;;;6.90;;
80567;SDS011;69922;45.656;25.586;2023-08-06T02:01:13;11.70;;;7.70;;
80567;SDS011;69922;45.656;25.586;2023-08-06T02:02:19;13.30;;;8.30;;
80567;SDS011;69922;45.656;25.586;2023-08-06T02:03:25;9.80;;;7.80;;
80567;SDS011;69922;45.656;25.586;2023-08-06T02:04:32;9.70;;;8.00;;
80567;SDS011;69922;45.656;25.586;2023-08-06T02:05:38;10.30;;;8.00;;
80567;SDS011;69922;45.656;25.586;2023-08-06T02:06:46;9.80;;;8.50;;
80567;SDS011;69922;45.656;25.586;2023-08-06T02:07:52;9.50;;;7.70;;
80567;SDS011;69922;45.656;25.586;2023-08-06T02:08:58;11.00;;;8.50;;
80567;SDS011;69922;45.656;25.586;2023-08-06T02:10:06;9.90;;;7.90;;
80567;SDS011;69922;45.656;25.586;2023-08-06T02:11:13;10.80;;;8.20;;
80567;SDS011;69922;45.656;25.586;2023-08-06T02:12:19;8.50;;;7.50;;
80567;SDS011;69922;45.656;25.586;2023-08-06T02:13:26;10.10;;;8.30;;
80567;SDS011;69922;45.656;25.586;2023-08-06T02:14:34;15.80;;;8.10;;
80567;SDS011;69922;45.656;25.586;2023-08-06T02:15:43;10.30;;;8.00;;
80567;SDS011;69922;45.656;25.586;2023-08-06T02:16:51;10.00;;;7.00;;
80567;SDS011;69922;45.656;25.586;2023-08-06T02:17:58;10.60;;;7.30;;
80567;SDS011;69922;45.656;25.586;2023-08-06T02:19:04;9.40;;;7.90;;
80567;SDS011;69922;45.656;25.586;2023-08-06T02:20:11;9.20;;;8.00;;
80567;SDS011;69922;45.656;25.586;2023-08-06T02:21:18;8.70;;;7.80;;
80567;SDS011;69922;45.656;25.586;2023-08-06T02:22:23;9.90;;;8.30;;
80567;SDS011;69922;45.656;25.586;2023-08-06T02:23:30;11.40;;;8.30;;
80567;SDS011;69922;45.656;25.586;2023-08-06T02:24:36;8.30;;;7.60;;
80567;SDS011;69922;45.656;25.586;2023-08-06T02:25:41;8.60;;;7.60;;
80567;SDS011;69922;45.656;25.586;2023-08-06T02:26:47;9.90;;;8.00;;
80567;SDS011;69922;45.656;25.586;2023-08-06T02:27:55;11.40;;;8.90;;
80567;SDS011;69922;45.656;25.586;2023-08-06T02:29:02;11.60;;;7.60;;
80567;SDS011;69922;45.656;25.586;2023-08-06T02:30:09;9.40;;;8.40;;
80567;SDS011;69922;45.656;25.586;2023-08-06T02:31:15;10.80;;;7.80;;
80567;SDS011;69922;45.656;25.586;2023-08-06T02:32:21;9.40;;;7.80;;
80567;SDS011;69922;45.656;25.586;2023-08-06T02:33:27;9.90;;;8.30;;
80567;SDS011;69922;45.656;25.586;2023-08-06T02:34:34;11.80;;;7.40;;
80567;SDS011;69922;45.656;25.586;2023-08-06T02:35:39;9.30;;;7.60;;
80567;SDS011;69922;45.656;25.586;2023-08-06T02:36:46;8.80;;;7.60;;
80567;SDS011;69922;45.656;25.586;2023-08-06T02:37:52;9.60;;;7.80;;
80567;SDS011;69922;45.656;25.586;2023-08-06T02:38:58;12.20;;;8.30;;
80567;SDS011;69922;45.656;25.586;2023-08-06T02:40:05;8.80;;;7.90;;
80567;SDS011;69922;45.656;25.586;2023-08-06T02:41:12;12.60;;;8.40;;
80567;SDS011;69922;45.656;25.586;2023-08-06T02:42:18;11.70;;;8.40;;
80567;SDS011;69922;45.656;25.586;2023-08-06T02:43:24;9.10;;;8.10;;
80567;SDS011;69922;45.656;25.586;2023-08-06T02:44:30;9.50;;;8.10;;
80567;SDS011;69922;45.656;25.586;2023-08-06T02:45:37;9.60;;;7.50;;
80567;SDS011;69922;45.656;25.586;2023-08-06T02:46:45;10.80;;;8.70;;
80567;SDS011;69922;45.656;25.586;2023-08-06T02:47:51;11.80;;;7.30;;
80567;SDS011;69922;45.656;25.586;2023-08-06T02:48:57;9.50;;;7.20;;
80567;SDS011;69922;45.656;25.586;2023-08-06T02:50:03;12.30;;;8.00;;
80567;SDS011;69922;45.656;25.586;2023-08-06T02:51:11;10.00;;;7.70;;
80567;SDS011;69922;45.656;25.586;2023-08-06T02:52:16;9.30;;;8.00;;
80567;SDS011;69922;45.656;25.586;2023-08-06T02:53:23;9.90;;;7.90;;
80567;SDS011;69922;45.656;25.586;2023-08-06T02:54:28;13.30;;;8.40;;
80567;SDS011;69922;45.656;25.586;2023-08-06T02:55:35;10.90;;;8.20;;
80567;SDS011;69922;45.656;25.586;2023-08-06T02:56:44;10.80;;;8.10;;
80567;SDS011;69922;45.656;25.586;2023-08-06T02:57:51;11.40;;;8.60;;
80567;SDS011;69922;45.656;25.586;2023-08-06T02:58:56;9.90;;;8.90;;
80567;SDS011;69922;45.656;25.586;2023-08-06T03:00:03;9.90;;;8.60;;
80567;SDS011;69922;45.656;25.586;2023-08-06T03:01:11;9.30;;;8.40;;
80567;SDS011;69922;45.656;25.586;2023-08-06T03:02:19;9.70;;;8.40;;
80567;SDS011;69922;45.656;25.586;2023-08-06T03:03:26;10.60;;;8.40;;
80567;SDS011;69922;45.656;25.586;2023-08-06T03:04:34;9.00;;;7.80;;
80567;SDS011;69922;45.656;25.586;2023-08-06T03:05:40;12.60;;;8.40;;
80567;SDS011;69922;45.656;25.586;2023-08-06T03:06:54;10.90;;;8.30;;
80567;SDS011;69922;45.656;25.586;2023-08-06T03:08:01;12.10;;;8.90;;
80567;SDS011;69922;45.656;25.586;2023-08-06T03:09:07;9.50;;;8.50;;
80567;SDS011;69922;45.656;25.586;2023-08-06T03:10:15;12.90;;;8.70;;
80567;SDS011;69922;45.656;25.586;2023-08-06T03:11:21;11.90;;;8.60;;
80567;SDS011;69922;45.656;25.586;2023-08-06T03:12:27;10.50;;;8.00;;
80567;SDS011;69922;45.656;25.586;2023-08-06T03:13:34;12.90;;;8.40;;
80567;SDS011;69922;45.656;25.586;2023-08-06T03:14:40;9.70;;;8.70;;
80567;SDS011;69922;45.656;25.586;2023-08-06T03:15:53;10.50;;;8.60;;
80567;SDS011;69922;45.656;25.586;2023-08-06T03:17:00;12.20;;;7.90;;
80567;SDS011;69922;45.656;25.586;2023-08-06T03:18:06;9.40;;;7.20;;
80567;SDS011;69922;45.656;25.586;2023-08-06T03:19:12;8.70;;;7.30;;
80567;SDS011;69922;45.656;25.586;2023-08-06T03:20:19;8.60;;;7.00;;
80567;SDS011;69922;45.656;25.586;2023-08-06T03:21:25;10.10;;;8.40;;
80567;SDS011;69922;45.656;25.586;2023-08-06T03:22:31;13.20;;;8.70;;
80567;SDS011;69922;45.656;25.586;2023-08-06T03:23:37;9.50;;;8.20;;
80567;SDS011;69922;45.656;25.586;2023-08-06T03:24:44;10.60;;;8.70;;
80567;SDS011;69922;45.656;25.586;2023-08-06T03:25:50;12.10;;;8.80;;
80567;SDS011;69922;45.656;25.586;2023-08-06T03:26:56;12.60;;;9.50;;
80567;SDS011;69922;45.656;25.586;2023-08-06T03:28:03;10.20;;;9.10;;
80567;SDS011;69922;45.656;25.586;2023-08-06T03:29:09;9.90;;;8.50;;
80567;SDS011;69922;45.656;25.586;2023-08-06T03:30:16;12.10;;;8.10;;
80567;SDS011;69922;45.656;25.586;2023-08-06T03:31:23;11.50;;;8.30;;
80567;SDS011;69922;45.656;25.586;2023-08-06T03:32:29;9.30;;;7.60;;
80567;SDS011;69922;45.656;25.586;2023-08-06T03:33:40;8.80;;;7.50;;
80567;SDS011;69922;45.656;25.586;2023-08-06T03:34:46;9.60;;;8.00;;
80567;SDS011;69922;45.656;25.586;2023-08-06T03:35:53;9.20;;;7.90;;
80567;SDS011;69922;45.656;25.586;2023-08-06T03:36:59;10.40;;;8.20;;
80567;SDS011;69922;45.656;25.586;2023-08-06T03:38:05;9.30;;;8.40;;
80567;SDS011;69922;45.656;25.586;2023-08-06T03:39:11;9.70;;;8.40;;
80567;SDS011;69922;45.656;25.586;2023-08-06T03:40:18;13.40;;;8.40;;
80567;SDS011;69922;45.656;25.586;2023-08-06T03:41:23;14.00;;;8.60;;
80567;SDS011;69922;45.656;25.586;2023-08-06T03:42:29;9.60;;;8.60;;
80567;SDS011;69922;45.656;25.586;2023-08-06T03:43:35;10.60;;;9.40;;
80567;SDS011;69922;45.656;25.586;2023-08-06T03:44:41;10.20;;;9.20;;
80567;SDS011;69922;45.656;25.586;2023-08-06T03:45:47;10.70;;;8.40;;
80567;SDS011;69922;45.656;25.586;2023-08-06T03:46:53;11.90;;;9.50;;
80567;SDS011;69922;45.656;25.586;2023-08-06T03:47:59;9.00;;;7.70;;
80567;SDS011;69922;45.656;25.586;2023-08-06T03:49:05;9.90;;;8.00;;
80567;SDS011;69922;45.656;25.586;2023-08-06T03:50:11;8.20;;;7.40;;
80567;SDS011;69922;45.656;25.586;2023-08-06T03:51:17;9.10;;;7.50;;
80567;SDS011;69922;45.656;25.586;2023-08-06T03:52:24;9.00;;;8.00;;
80567;SDS011;69922;45.656;25.586;2023-08-06T03:53:30;8.70;;;7.60;;
80567;SDS011;69922;45.656;25.586;2023-08-06T03:54:36;10.20;;;8.50;;
80567;SDS011;69922;45.656;25.586;2023-08-06T03:55:43;9.00;;;8.00;;
80567;SDS011;69922;45.656;25.586;2023-08-06T03:56:49;9.70;;;8.70;;
80567;SDS011;69922;45.656;25.586;2023-08-06T03:57:55;11.70;;;9.10;;
80567;SDS011;69922;45.656;25.586;2023-08-06T03:59:01;10.80;;;8.30;;
80567;SDS011;69922;45.656;25.586;2023-08-06T04:00:09;10.40;;;8.40;;
80567;SDS011;69922;45.656;25.586;2023-08-06T04:01:17;12.70;;;8.50;;
80567;SDS011;69922;45.656;25.586;2023-08-06T04:02:24;10.30;;;9.20;;
80567;SDS011;69922;45.656;25.586;2023-08-06T04:03:31;12.00;;;8.60;;
80567;SDS011;69922;45.656;25.586;2023-08-06T04:04:36;9.30;;;8.00;;
80567;SDS011;69922;45.656;25.586;2023-08-06T04:05:43;9.00;;;8.00;;
80567;SDS011;69922;45.656;25.586;2023-08-06T04:06:49;13.60;;;7.80;;
80567;SDS011;69922;45.656;25.586;2023-08-06T04:07:55;9.80;;;7.60;;
80567;SDS011;69922;45.656;25.586;2023-08-06T04:09:02;11.10;;;8.70;;
80567;SDS011;69922;45.656;25.586;2023-08-06T04:10:09;11.10;;;7.90;;
80567;SDS011;69922;45.656;25.586;2023-08-06T04:11:15;9.30;;;8.30;;
80567;SDS011;69922;45.656;25.586;2023-08-06T04:12:21;10.90;;;8.50;;
80567;SDS011;69922;45.656;25.586;2023-08-06T04:13:28;10.40;;;9.20;;
80567;SDS011;69922;45.656;25.586;2023-08-06T04:14:33;13.00;;;10.00;;
80567;SDS011;69922;45.656;25.586;2023-08-06T04:15:39;13.70;;;9.20;;
80567;SDS011;69922;45.656;25.586;2023-08-06T04:16:46;10.30;;;9.10;;
80567;SDS011;69922;45.656;25.586;2023-08-06T04:17:52;12.10;;;9.00;;
80567;SDS011;69922;45.656;25.586;2023-08-06T04:19:02;13.50;;;9.80;;
80567;SDS011;69922;45.656;25.586;2023-08-06T04:20:09;10.20;;;8.40;;
80567;SDS011;69922;45.656;25.586;2023-08-06T04:21:16;11.80;;;8.90;;
80567;SDS011;69922;45.656;25.586;2023-08-06T04:22:22;10.20;;;8.00;;
80567;SDS011;69922;45.656;25.586;2023-08-06T04:23:29;12.90;;;7.70;;
80567;SDS011;69922;45.656;25.586;2023-08-06T04:24:35;10.20;;;9.00;;
80567;SDS011;69922;45.656;25.586;2023-08-06T04:25:42;10.50;;;8.20;;
80567;SDS011;69922;45.656;25.586;2023-08-06T04:26:48;11.40;;;8.70;;
80567;SDS011;69922;45.656;25.586;2023-08-06T04:27:55;11.70;;;9.10;;
80567;SDS011;69922;45.656;25.586;2023-08-06T04:29:02;11.30;;;8.80;;
80567;SDS011;69922;45.656;25.586;2023-08-06T04:30:09;10.10;;;8.50;;
80567;SDS011;69922;45.656;25.586;2023-08-06T04:31:17;10.70;;;8.00;;
80567;SDS011;69922;45.656;25.586;2023-08-06T04:32:23;11.40;;;8.30;;
80567;SDS011;69922;45.656;25.586;2023-08-06T04:33:30;9.80;;;8.70;;
80567;SDS011;69922;45.656;25.586;2023-08-06T04:34:36;11.00;;;8.50;;
80567;SDS011;69922;45.656;25.586;2023-08-06T04:35:42;10.70;;;8.50;;
80567;SDS011;69922;45.656;25.586;2023-08-06T04:36:50;12.50;;;8.50;;
80567;SDS011;69922;45.656;25.586;2023-08-06T04:37:56;10.30;;;8.00;;
80567;SDS011;69922;45.656;25.586;2023-08-06T04:39:02;10.60;;;8.60;;
80567;SDS011;69922;45.656;25.586;2023-08-06T04:40:09;10.90;;;8.20;;
80567;SDS011;69922;45.656;25.586;2023-08-06T04:41:18;9.30;;;7.20;;
80567;SDS011;69922;45.656;25.586;2023-08-06T04:42:24;11.30;;;7.40;;
80567;SDS011;69922;45.656;25.586;2023-08-06T04:43:30;8.50;;;7.30;;
80567;SDS011;69922;45.656;25.586;2023-08-06T04:44:37;9.50;;;8.10;;
80567;SDS011;69922;45.656;25.586;2023-08-06T04:45:47;8.70;;;7.50;;
80567;SDS011;69922;45.656;25.586;2023-08-06T04:46:53;10.00;;;7.90;;
80567;SDS011;69922;45.656;25.586;2023-08-06T04:47:59;11.20;;;8.40;;
80567;SDS011;69922;45.656;25.586;2023-08-06T04:49:05;10.50;;;8.30;;
80567;SDS011;69922;45.656;25.586;2023-08-06T04:50:11;10.90;;;8.40;;
80567;SDS011;69922;45.656;25.586;2023-08-06T04:51:17;10.40;;;8.30;;
80567;SDS011;69922;45.656;25.586;2023-08-06T04:52:23;11.30;;;8.50;;
80567;SDS011;69922;45.656;25.586;2023-08-06T04:53:35;10.00;;;7.80;;
80567;SDS011;69922;45.656;25.586;2023-08-06T04:54:41;9.70;;;8.10;;
80567;SDS011;69922;45.656;25.586;2023-08-06T04:55:48;9.50;;;8.60;;
80567;SDS011;69922;45.656;25.586;2023-08-06T04:56:55;10.30;;;7.90;;
80567;SDS011;69922;45.656;25.586;2023-08-06T04:58:01;11.40;;;8.40;;
80567;SDS011;69922;45.656;25.586;2023-08-06T04:59:07;10.60;;;8.50;;
80567;SDS011;69922;45.656;25.586;2023-08-06T05:00:13;12.80;;;8.10;;
80567;SDS011;69922;45.656;25.586;2023-08-06T05:01:19;11.70;;;8.90;;
80567;SDS011;69922;45.656;25.586;2023-08-06T05:02:24;12.40;;;9.50;;
80567;SDS011;69922;45.656;25.586;2023-08-06T05:03:30;11.70;;;9.00;;
80567;SDS011;69922;45.656;25.586;2023-08-06T05:04:37;11.30;;;8.90;;
80567;SDS011;69922;45.656;25.586;2023-08-06T05:05:43;11.00;;;7.90;;
80567;SDS011;69922;45.656;25.586;2023-08-06T05:06:51;10.60;;;9.30;;
80567;SDS011;69922;45.656;25.586;2023-08-06T05:07:57;9.00;;;8.10;;
80567;SDS011;69922;45.656;25.586;2023-08-06T05:09:03;12.70;;;8.70;;
80567;SDS011;69922;45.656;25.586;2023-08-06T05:10:10;10.20;;;8.10;;
80567;SDS011;69922;45.656;25.586;2023-08-06T05:11:17;13.30;;;8.90;;
80567;SDS011;69922;45.656;25.586;2023-08-06T05:12:23;9.70;;;7.80;;
80567;SDS011;69922;45.656;25.586;2023-08-06T05:13:28;10.10;;;8.50;;
80567;SDS011;69922;45.656;25.586;2023-08-06T05:14:36;9.30;;;7.80;;
80567;SDS011;69922;45.656;25.586;2023-08-06T05:15:42;9.60;;;7.90;;
80567;SDS011;69922;45.656;25.586;2023-08-06T05:16:50;9.00;;;7.50;;
80567;SDS011;69922;45.656;25.586;2023-08-06T05:17:56;8.90;;;7.10;;
80567;SDS011;69922;45.656;25.586;2023-08-06T05:19:05;9.00;;;7.30;;
80567;SDS011;69922;45.656;25.586;2023-08-06T05:20:16;11.20;;;8.10;;
80567;SDS011;69922;45.656;25.586;2023-08-06T05:21:24;11.60;;;8.40;;
80567;SDS011;69922;45.656;25.586;2023-08-06T05:22:30;10.10;;;8.50;;
80567;SDS011;69922;45.656;25.586;2023-08-06T05:23:36;12.40;;;8.40;;
80567;SDS011;69922;45.656;25.586;2023-08-06T05:24:42;8.60;;;7.70;;
80567;SDS011;69922;45.656;25.586;2023-08-06T05:25:50;11.10;;;8.40;;
80567;SDS011;69922;45.656;25.586;2023-08-06T05:26:56;10.70;;;8.70;;
80567;SDS011;69922;45.656;25.586;2023-08-06T05:28:02;11.40;;;8.70;;
80567;SDS011;69922;45.656;25.586;2023-08-06T05:29:08;11.60;;;8.50;;
80567;SDS011;69922;45.656;25.586;2023-08-06T05:30:15;10.40;;;8.20;;
80567;SDS011;69922;45.656;25.586;2023-08-06T05:31:21;11.00;;;8.00;;
80567;SDS011;69922;45.656;25.586;2023-08-06T05:32:28;13.10;;;8.80;;
80567;SDS011;69922;45.656;25.586;2023-08-06T05:33:34;11.70;;;8.60;;
80567;SDS011;69922;45.656;25.586;2023-08-06T05:34:41;10.70;;;8.10;;
80567;SDS011;69922;45.656;25.586;2023-08-06T05:35:47;12.50;;;9.00;;
80567;SDS011;69922;45.656;25.586;2023-08-06T05:36:56;12.50;;;8.40;;
80567;SDS011;69922;45.656;25.586;2023-08-06T05:38:02;12.20;;;8.70;;
80567;SDS011;69922;45.656;25.586;2023-08-06T05:39:08;13.70;;;8.70;;
80567;SDS011;69922;45.656;25.586;2023-08-06T05:40:15;11.00;;;9.00;;
80567;SDS011;69922;45.656;25.586;2023-08-06T05:41:23;10.50;;;8.90;;
80567;SDS011;69922;45.656;25.586;2023-08-06T05:42:29;10.90;;;9.60;;
80567;SDS011;69922;45.656;25.586;2023-08-06T05:43:35;12.50;;;8.70;;
80567;SDS011;69922;45.656;25.586;2023-08-06T05:44:42;11.60;;;8.70;;
80567;SDS011;69922;45.656;25.586;2023-08-06T05:45:50;10.20;;;8.10;;
80567;SDS011;69922;45.656;25.586;2023-08-06T05:46:56;10.10;;;7.70;;
80567;SDS011;69922;45.656;25.586;2023-08-06T05:48:02;10.20;;;8.00;;
80567;SDS011;69922;45.656;25.586;2023-08-06T05:49:10;10.80;;;8.20;;
80567;SDS011;69922;45.656;25.586;2023-08-06T05:50:21;9.70;;;8.40;;
80567;SDS011;69922;45.656;25.586;2023-08-06T05:51:27;9.70;;;8.00;;
80567;SDS011;69922;45.656;25.586;2023-08-06T05:52:33;10.20;;;8.00;;
80567;SDS011;69922;45.656;25.586;2023-08-06T05:53:39;9.10;;;8.10;;
80567;SDS011;69922;45.656;25.586;2023-08-06T05:54:45;10.30;;;8.10;;
80567;SDS011;69922;45.656;25.586;2023-08-06T05:55:51;11.30;;;7.80;;
80567;SDS011;69922;45.656;25.586;2023-08-06T05:56:57;9.40;;;7.60;;
80567;SDS011;69922;45.656;25.586;2023-08-06T05:58:04;9.50;;;7.50;;
80567;SDS011;69922;45.656;25.586;2023-08-06T05:59:10;9.60;;;7.60;;
80567;SDS011;69922;45.656;25.586;2023-08-06T06:00:16;10.10;;;7.90;;
80567;SDS011;69922;45.656;25.586;2023-08-06T06:01:23;9.50;;;7.10;;
80567;SDS011;69922;45.656;25.586;2023-08-06T06:02:29;10.30;;;7.70;;
80567;SDS011;69922;45.656;25.586;2023-08-06T06:03:36;8.40;;;7.10;;
80567;SDS011;69922;45.656;25.586;2023-08-06T06:04:42;11.10;;;8.20;;
80567;SDS011;69922;45.656;25.586;2023-08-06T06:05:49;10.40;;;7.00;;
80567;SDS011;69922;45.656;25.586;2023-08-06T06:06:55;10.90;;;7.30;;
80567;SDS011;69922;45.656;25.586;2023-08-06T06:08:00;10.00;;;7.50;;
80567;SDS011;69922;45.656;25.586;2023-08-06T06:09:08;9.00;;;7.00;;
80567;SDS011;69922;45.656;25.586;2023-08-06T06:10:16;8.90;;;7.00;;
80567;SDS011;69922;45.656;25.586;2023-08-06T06:11:23;7.60;;;6.70;;
80567;SDS011;69922;45.656;25.586;2023-08-06T06:12:29;8.00;;;6.80;;
80567;SDS011;69922;45.656;25.586;2023-08-06T06:13:36;10.70;;;7.40;;
80567;SDS011;69922;45.656;25.586;2023-08-06T06:14:42;9.40;;;6.90;;
80567;SDS011;69922;45.656;25.586;2023-08-06T06:15:48;8.20;;;7.20;;
80567;SDS011;69922;45.656;25.586;2023-08-06T06:16:58;9.40;;;7.50;;
80567;SDS011;69922;45.656;25.586;2023-08-06T06:18:05;8.70;;;7.10;;
80567;SDS011;69922;45.656;25.586;2023-08-06T06:19:11;10.70;;;7.40;;
80567;SDS011;69922;45.656;25.586;2023-08-06T06:20:17;8.40;;;6.50;;
80567;SDS011;69922;45.656;25.586;2023-08-06T06:21:24;8.60;;;6.80;;
80567;SDS011;69922;45.656;25.586;2023-08-06T06:22:30;9.00;;;7.30;;
80567;SDS011;69922;45.656;25.586;2023-08-06T06:23:36;7.60;;;6.40;;
80567;SDS011;69922;45.656;25.586;2023-08-06T06:24:42;6.80;;;6.20;;
80567;SDS011;69922;45.656;25.586;2023-08-06T06:25:48;7.20;;;6.50;;
80567;SDS011;69922;45.656;25.586;2023-08-06T06:26:56;6.80;;;6.10;;
80567;SDS011;69922;45.656;25.586;2023-08-06T06:28:02;7.30;;;6.40;;
80567;SDS011;69922;45.656;25.586;2023-08-06T06:29:09;7.10;;;6.20;;
80567;SDS011;69922;45.656;25.586;2023-08-06T06:30:15;7.40;;;6.40;;
80567;SDS011;69922;45.656;25.586;2023-08-06T06:31:22;7.90;;;6.70;;
80567;SDS011;69922;45.656;25.586;2023-08-06T06:32:29;6.50;;;5.90;;
80567;SDS011;69922;45.656;25.586;2023-08-06T06:33:36;7.40;;;6.50;;
80567;SDS011;69922;45.656;25.586;2023-08-06T06:34:43;8.00;;;5.80;;
80567;SDS011;69922;45.656;25.586;2023-08-06T06:35:50;6.90;;;6.20;;
80567;SDS011;69922;45.656;25.586;2023-08-06T06:36:56;6.90;;;6.20;;
80567;SDS011;69922;45.656;25.586;2023-08-06T06:38:03;7.00;;;5.90;;
80567;SDS011;69922;45.656;25.586;2023-08-06T06:39:09;7.40;;;6.60;;